createdAt,value
2022-11-02T00:01:19.511Z,7.80
2022-11-02T00:03:45.938Z,7.75
2022-11-02T00:06:12.415Z,7.66
2022-11-02T00:08:38.785Z,7.54
2022-11-02T00:11:05.291Z,7.49
2022-11-02T00:13:32.076Z,7.46
2022-11-02T00:16:01.515Z,7.39
2022-11-02T00:18:28.164Z,7.35
2022-11-02T00:20:55.602Z,7.29
2022-11-02T00:23:22.314Z,7.18
2022-11-02T00:25:50.337Z,7.07
2022-11-02T00:28:16.909Z,7.02
2022-11-02T00:30:43.523Z,7.01
2022-11-02T00:33:10.206Z,6.96
2022-11-02T00:35:37.108Z,6.95
2022-11-02T00:38:04.077Z,6.92
2022-11-02T00:40:30.764Z,6.87
2022-11-02T00:50:55.752Z,6.72
2022-11-02T00:53:22.184Z,6.72
2022-11-02T00:55:48.654Z,6.70
2022-11-02T00:58:15.031Z,6.66
2022-11-02T01:00:41.468Z,6.65
2022-11-02T01:03:07.875Z,6.61
2022-11-02T01:05:34.288Z,6.61
2022-11-02T01:08:00.818Z,6.62
2022-11-02T01:10:27.414Z,6.62
2022-11-02T01:12:54.038Z,6.65
2022-11-02T01:15:20.491Z,6.66
2022-11-02T01:17:47.017Z,6.69
2022-11-02T01:20:13.494Z,6.70
2022-11-02T01:22:39.984Z,6.75
2022-11-02T01:25:06.536Z,6.84
2022-11-02T01:27:32.926Z,6.94
2022-11-02T01:29:59.519Z,7.05
2022-11-02T01:32:28.723Z,7.11
2022-11-02T01:34:55.127Z,7.11
2022-11-02T01:37:22.011Z,7.11
2022-11-02T01:39:48.431Z,7.12
2022-11-02T01:42:22.032Z,7.17
2022-11-02T01:44:48.703Z,7.25
2022-11-02T01:47:19.587Z,7.26
2022-11-02T01:49:47.595Z,7.30
2022-11-02T01:52:20.198Z,7.31
2022-11-02T01:54:55.862Z,7.36
2022-11-02T01:57:22.616Z,7.37
2022-11-02T01:59:55.333Z,7.47
2022-11-02T02:02:23.643Z,7.51
2022-11-02T02:04:52.879Z,7.63
2022-11-02T02:07:19.984Z,7.66
2022-11-02T02:09:50.273Z,7.64
2022-11-02T02:12:17.988Z,7.72
2022-11-02T02:14:44.398Z,7.68
2022-11-02T02:17:29.428Z,7.63
2022-11-02T02:19:55.881Z,7.51
2022-11-02T02:22:31.489Z,7.50
2022-11-02T02:25:07.019Z,7.47
2022-11-02T02:27:42.620Z,7.41
2022-11-02T02:30:10.199Z,7.39
2022-11-02T02:32:36.570Z,7.34
2022-11-02T02:35:21.468Z,7.34
2022-11-02T02:37:47.827Z,7.29
2022-11-02T02:40:17.875Z,7.23
2022-11-02T02:42:47.064Z,7.20
2022-11-02T02:45:19.764Z,7.13
2022-11-02T02:47:52.464Z,7.11
2022-11-02T02:50:21.793Z,7.07
2022-11-02T02:52:49.895Z,7.03
2022-11-02T02:55:23.262Z,6.94
2022-11-02T02:57:49.831Z,6.92
2022-11-02T03:00:17.814Z,6.88
2022-11-02T03:03:01.031Z,6.83
2022-11-02T03:05:33.852Z,6.80
2022-11-02T03:08:03.317Z,6.75
2022-11-02T03:10:30.008Z,6.71
2022-11-02T03:13:20.568Z,6.69
2022-11-02T03:15:50.284Z,6.67
2022-11-02T03:18:30.749Z,6.62
2022-11-02T03:20:57.146Z,6.59
2022-11-02T03:23:33.423Z,6.55
2022-11-02T03:26:03.979Z,6.52
2022-11-02T03:28:51.562Z,6.54
2022-11-02T03:31:36.730Z,6.52
2022-11-02T03:34:03.259Z,6.54
2022-11-02T03:36:46.461Z,6.55
2022-11-02T03:39:15.871Z,6.57
2022-11-02T03:41:44.454Z,6.54
2022-11-02T03:44:12.979Z,6.51
2022-11-02T03:46:41.355Z,6.51
2022-11-02T03:49:11.149Z,6.51
2022-11-02T03:51:38.548Z,6.51
2022-11-02T03:54:12.338Z,6.52
2022-11-02T03:56:42.475Z,6.55
2022-11-02T03:59:08.983Z,6.56
2022-11-02T04:01:43.353Z,6.53
2022-11-02T04:04:10.112Z,6.55
2022-11-02T04:06:37.217Z,6.56
2022-11-02T04:09:04.627Z,6.55
2022-11-02T04:11:50.546Z,6.52
2022-11-02T04:14:35.586Z,6.54
2022-11-02T04:17:21.068Z,6.51
2022-11-02T04:19:49.841Z,6.51
2022-11-02T04:22:35.603Z,6.54
2022-11-02T04:25:20.651Z,6.61
2022-11-02T04:27:51.462Z,6.54
2022-11-02T04:30:19.705Z,6.55
2022-11-02T04:33:06.249Z,6.50
2022-11-02T04:35:33.103Z,6.60
2022-11-02T04:38:18.257Z,6.83
2022-11-02T04:40:44.879Z,6.99
2022-11-02T04:43:11.328Z,7.11
2022-11-02T04:45:37.837Z,7.30
2022-11-02T04:48:08.243Z,7.27
2022-11-02T04:50:35.036Z,7.26
2022-11-02T04:53:02.421Z,7.25
2022-11-02T04:55:29.137Z,7.18
2022-11-02T04:57:55.819Z,7.14
2022-11-02T05:00:22.905Z,7.16
2022-11-02T05:02:49.711Z,7.07
2022-11-02T05:05:18.095Z,7.00
2022-11-02T05:07:44.631Z,6.94
2022-11-02T05:10:11.616Z,6.92
2022-11-02T05:12:38.145Z,6.89
2022-11-02T05:15:05.090Z,6.89
2022-11-02T05:17:31.619Z,6.89
2022-11-02T05:19:58.030Z,6.87
2022-11-02T05:22:24.451Z,6.81
2022-11-02T05:24:50.837Z,6.84
2022-11-02T05:27:17.310Z,6.82
2022-11-02T05:29:43.715Z,6.79
2022-11-02T05:32:10.133Z,6.78
2022-11-02T05:34:36.518Z,6.74
2022-11-02T05:37:02.958Z,6.72
2022-11-02T05:39:29.303Z,6.70
2022-11-02T05:41:55.712Z,6.70
2022-11-02T05:44:22.189Z,6.67
2022-11-02T05:46:48.580Z,6.62
2022-11-02T05:49:14.981Z,6.62
2022-11-02T05:51:41.419Z,6.58
2022-11-02T05:54:07.774Z,6.54
2022-11-02T05:56:35.340Z,6.50
2022-11-02T05:59:01.715Z,6.49
2022-11-02T06:01:28.262Z,6.44
2022-11-02T06:03:54.754Z,6.40
2022-11-02T06:06:21.179Z,6.38
2022-11-02T06:08:47.734Z,6.38
2022-11-02T06:11:14.260Z,6.36
2022-11-02T06:13:41.212Z,6.34
2022-11-02T06:16:11.013Z,6.36
2022-11-02T06:18:38.192Z,6.46
2022-11-02T06:21:04.903Z,6.43
2022-11-02T06:23:31.370Z,6.50
2022-11-02T06:25:58.797Z,6.47
2022-11-02T06:28:25.599Z,6.46
2022-11-02T06:30:52.162Z,6.56
2022-11-02T06:33:19.065Z,6.61
2022-11-02T06:35:49.956Z,6.65
2022-11-02T06:38:17.093Z,6.76
2022-11-02T06:40:44.034Z,6.89
2022-11-02T06:43:16.696Z,7.07
2022-11-02T06:45:44.023Z,7.22
2022-11-02T06:48:10.427Z,7.32
2022-11-02T06:50:36.818Z,7.41
2022-11-02T06:53:03.660Z,7.53
2022-11-02T06:55:30.422Z,7.69
2022-11-02T06:57:56.889Z,7.81
2022-11-02T07:00:24.115Z,7.94
2022-11-02T07:03:04.830Z,8.03
2022-11-02T07:05:31.704Z,8.13
2022-11-02T07:07:58.226Z,8.17
2022-11-02T07:10:25.181Z,8.28
2022-11-02T07:12:52.048Z,8.29
2022-11-02T07:15:18.455Z,8.28
2022-11-02T07:17:44.785Z,8.29
2022-11-02T07:20:11.589Z,8.36
2022-11-02T07:22:38.111Z,8.38
2022-11-02T07:25:04.880Z,8.42
2022-11-02T07:27:31.288Z,8.45
2022-11-02T07:29:58.486Z,8.53
2022-11-02T07:32:25.847Z,8.64
2022-11-02T07:34:52.385Z,8.60
2022-11-02T07:37:18.831Z,8.64
2022-11-02T07:39:45.431Z,8.71
2022-11-02T07:42:12.088Z,8.78
2022-11-02T07:44:38.956Z,8.80
2022-11-02T07:47:05.430Z,8.88
2022-11-02T07:49:31.968Z,8.98
2022-11-02T07:51:58.327Z,9.14
2022-11-02T07:54:24.925Z,9.27
2022-11-02T07:56:51.686Z,9.28
2022-11-02T07:59:18.239Z,9.36
2022-11-02T08:01:44.999Z,9.45
2022-11-02T08:04:11.788Z,9.57
2022-11-02T08:06:39.608Z,9.63
2022-11-02T08:09:06.006Z,9.74
2022-11-02T08:11:32.369Z,9.90
2022-11-02T08:13:59.177Z,10.08
2022-11-02T08:16:25.658Z,10.22
2022-11-02T08:18:52.093Z,10.31
2022-11-02T08:21:18.455Z,10.47
2022-11-02T08:23:45.181Z,10.57
2022-11-02T08:26:11.686Z,10.65
2022-11-02T08:28:40.256Z,10.69
2022-11-02T08:31:10.272Z,10.77
2022-11-02T08:33:36.745Z,10.82
2022-11-02T08:36:04.663Z,10.99
2022-11-02T08:38:31.509Z,11.12
2022-11-02T08:40:58.025Z,11.25
2022-11-02T08:43:24.543Z,11.45
2022-11-02T08:48:37.499Z,11.82
2022-11-02T08:51:05.665Z,12.00
2022-11-02T08:53:32.139Z,12.10
2022-11-02T08:55:59.181Z,12.32
2022-11-02T08:58:25.662Z,12.46
2022-11-02T09:00:55.339Z,12.64
2022-11-02T09:03:26.980Z,12.84
2022-11-02T09:05:58.897Z,13.09
2022-11-02T09:08:26.298Z,13.20
2022-11-02T09:10:53.269Z,13.34
2022-11-02T09:13:25.317Z,13.44
2022-11-02T09:15:53.621Z,13.45
2022-11-02T09:18:20.437Z,13.45
2022-11-02T09:20:48.593Z,13.48
2022-11-02T09:23:18.903Z,13.35
2022-11-02T09:25:45.499Z,13.28
2022-11-02T09:28:13.245Z,13.23
2022-11-02T09:30:39.701Z,13.15
2022-11-02T09:33:06.939Z,13.12
2022-11-02T09:35:35.083Z,13.12
2022-11-02T09:38:01.493Z,13.03
2022-11-02T09:40:38.968Z,13.01
2022-11-02T09:43:08.707Z,13.04
2022-11-02T09:45:55.924Z,13.05
2022-11-02T09:48:42.516Z,13.00
2022-11-02T09:51:16.162Z,13.01
2022-11-02T09:53:51.722Z,13.06
2022-11-02T09:56:19.964Z,13.02
2022-11-02T09:58:49.342Z,12.98
2022-11-02T10:01:30.271Z,13.00
2022-11-02T10:04:04.540Z,13.05
2022-11-02T10:06:31.558Z,13.02
2022-11-02T10:09:06.690Z,13.00
2022-11-02T10:11:45.401Z,12.97
2022-11-02T10:14:18.602Z,13.05
2022-11-02T10:16:57.306Z,13.14
2022-11-02T10:19:26.293Z,13.23
2022-11-02T10:21:57.797Z,13.43
2022-11-02T10:24:42.870Z,13.66
2022-11-02T10:27:19.988Z,13.83
2022-11-02T10:29:52.472Z,13.85
2022-11-02T10:32:19.083Z,13.68
2022-11-02T10:34:54.163Z,13.65
2022-11-02T10:37:41.541Z,13.62
2022-11-02T10:40:13.992Z,13.65
2022-11-02T10:42:43.000Z,13.61
2022-11-02T10:45:27.989Z,13.62
2022-11-02T10:48:00.093Z,13.58
2022-11-02T10:50:41.626Z,13.62
2022-11-02T10:53:40.586Z,13.65
2022-11-02T10:55:59.543Z,13.69
2022-11-02T10:58:27.838Z,13.71
2022-11-02T11:01:04.572Z,13.84
2022-11-02T11:03:31.041Z,13.95
2022-11-02T11:06:02.037Z,14.09
2022-11-02T11:08:30.596Z,14.08
2022-11-02T11:11:09.810Z,14.18
2022-11-02T11:16:41.697Z,14.22
2022-11-02T11:19:39.704Z,14.33
2022-11-02T11:22:26.957Z,14.26
2022-11-02T11:24:53.966Z,14.30
2022-11-02T11:27:23.674Z,14.27
2022-11-02T11:29:52.208Z,14.29
2022-11-02T11:32:22.764Z,14.28
2022-11-02T11:34:57.639Z,14.34
2022-11-02T11:37:25.355Z,14.36
2022-11-02T11:39:54.883Z,14.24
2022-11-02T11:42:23.968Z,14.31
2022-11-02T11:44:58.524Z,14.41
2022-11-02T11:47:29.686Z,14.38
2022-11-02T11:50:16.580Z,14.53
2022-11-02T11:52:44.213Z,14.68
2022-11-02T11:55:32.441Z,14.75
2022-11-02T11:58:17.453Z,14.88
2022-11-02T12:00:43.965Z,15.04
2022-11-02T12:03:11.861Z,15.25
2022-11-02T12:05:38.393Z,15.37
2022-11-02T12:08:19.804Z,15.30
2022-11-02T12:11:06.487Z,15.11
2022-11-02T12:13:51.556Z,14.80
2022-11-02T12:16:20.684Z,14.58
2022-11-02T12:19:02.102Z,14.43
2022-11-02T12:21:28.538Z,14.30
2022-11-02T12:23:55.010Z,14.36
2022-11-02T12:26:40.309Z,14.31
2022-11-02T12:29:12.989Z,14.16
2022-11-02T12:31:39.587Z,14.12
2022-11-02T12:34:28.522Z,14.22
2022-11-02T12:37:27.389Z,14.42
2022-11-02T12:39:59.705Z,14.60
2022-11-02T12:42:31.098Z,14.67
2022-11-02T12:44:57.755Z,14.73
2022-11-02T12:47:24.198Z,14.79
2022-11-02T12:50:00.729Z,14.85
2022-11-02T12:52:30.108Z,14.96
2022-11-02T12:54:57.984Z,15.02
2022-11-02T12:57:25.685Z,14.99
2022-11-02T12:59:56.373Z,15.00
2022-11-02T13:02:25.752Z,15.07
2022-11-02T13:04:56.525Z,15.14
2022-11-02T13:07:26.855Z,15.21
2022-11-02T13:09:58.679Z,15.22
2022-11-02T13:12:25.962Z,15.10
2022-11-02T13:14:54.722Z,15.08
2022-11-02T13:17:27.350Z,15.13
2022-11-02T13:19:56.008Z,15.12
2022-11-02T13:22:25.794Z,15.13
2022-11-02T13:24:55.402Z,15.17
2022-11-02T13:27:42.425Z,15.23
2022-11-02T13:30:13.838Z,15.17
2022-11-02T13:32:43.616Z,15.19
2022-11-02T13:35:16.761Z,15.04
2022-11-02T13:37:45.891Z,14.92
2022-11-02T13:40:33.912Z,14.84
2022-11-02T13:43:19.497Z,14.90
2022-11-02T13:45:52.070Z,14.95
2022-11-02T13:48:24.320Z,14.94
2022-11-02T13:50:52.607Z,14.88
2022-11-02T13:53:22.303Z,14.72
2022-11-02T13:55:54.485Z,14.69
2022-11-02T13:58:23.725Z,14.62
2022-11-02T14:00:51.145Z,14.57
2022-11-02T14:03:20.240Z,14.55
2022-11-02T14:05:48.933Z,14.38
2022-11-02T14:08:20.741Z,14.34
2022-11-02T14:11:03.521Z,14.20
2022-11-02T14:13:48.659Z,14.06
2022-11-02T14:16:34.974Z,13.99
2022-11-02T14:19:19.555Z,13.98
2022-11-02T14:21:49.288Z,13.90
2022-11-02T14:24:37.149Z,13.90
2022-11-02T14:27:12.802Z,13.90
2022-11-02T14:29:42.460Z,13.90
2022-11-02T14:32:34.696Z,13.85
2022-11-02T14:35:07.179Z,13.84
2022-11-02T14:37:48.837Z,13.85
2022-11-02T14:40:34.065Z,13.75
2022-11-02T14:43:19.482Z,13.74
2022-11-02T14:45:45.869Z,13.66
2022-11-02T14:48:16.832Z,13.65
2022-11-02T14:51:01.584Z,13.65
2022-11-02T14:53:29.791Z,13.59
2022-11-02T14:55:56.816Z,13.51
2022-11-02T14:58:28.295Z,13.47
2022-11-02T15:00:57.363Z,13.48
2022-11-02T15:03:23.903Z,13.39
2022-11-02T15:06:03.399Z,13.31
2022-11-02T15:08:31.983Z,13.29
2022-11-02T15:10:58.413Z,13.21
2022-11-02T15:13:27.902Z,13.15
2022-11-02T15:15:54.294Z,13.09
2022-11-02T15:18:29.972Z,13.04
2022-11-02T15:21:11.725Z,12.96
2022-11-02T15:23:50.499Z,12.85
2022-11-02T15:26:20.428Z,12.75
2022-11-02T15:28:49.494Z,12.71
2022-11-02T15:31:26.114Z,12.62
2022-11-02T15:33:59.915Z,12.56
2022-11-02T15:36:29.936Z,12.50
2022-11-02T15:38:56.496Z,12.41
2022-11-02T15:41:41.702Z,12.33
2022-11-02T15:44:27.417Z,12.25
2022-11-02T15:46:53.853Z,12.16
2022-11-02T15:49:20.323Z,12.05
2022-11-02T15:51:46.657Z,12.01
2022-11-02T15:54:25.276Z,11.94
2022-11-02T15:56:51.600Z,11.92
2022-11-02T15:59:39.873Z,11.84
2022-11-02T16:02:06.388Z,11.63
2022-11-02T16:04:33.854Z,11.55
2022-11-02T16:07:04.785Z,11.42
2022-11-02T16:09:33.096Z,11.39
2022-11-02T16:12:02.683Z,11.41
2022-11-02T16:14:32.382Z,11.34
2022-11-02T16:16:58.796Z,11.33
2022-11-02T16:19:25.426Z,11.28
2022-11-02T16:21:52.307Z,11.23
2022-11-02T16:24:21.716Z,11.10
2022-11-02T16:26:50.223Z,10.94
2022-11-02T16:29:25.097Z,10.76
2022-11-02T16:31:51.593Z,10.59
2022-11-02T16:34:22.872Z,10.46
2022-11-02T16:36:49.433Z,10.31
2022-11-02T16:39:30.526Z,10.18
2022-11-02T16:41:58.857Z,10.02
2022-11-02T16:44:34.673Z,9.93
2022-11-02T16:47:07.198Z,9.84
2022-11-02T16:49:51.969Z,9.75
2022-11-02T16:52:22.700Z,9.66
2022-11-02T16:54:49.314Z,9.59
2022-11-02T16:57:21.287Z,9.50
2022-11-02T16:59:51.659Z,9.41
2022-11-02T17:02:18.817Z,9.29
2022-11-02T17:04:47.349Z,9.22
2022-11-02T17:07:21.608Z,9.13
2022-11-02T17:10:06.515Z,9.04
2022-11-02T17:12:37.762Z,8.96
2022-11-02T17:15:11.214Z,8.85
2022-11-02T17:17:39.185Z,8.79
2022-11-02T17:20:11.865Z,8.71
2022-11-02T17:22:48.079Z,8.66
2022-11-02T17:25:22.323Z,8.62
2022-11-02T17:27:49.660Z,8.56
2022-11-02T17:30:34.470Z,8.52
2022-11-02T17:33:07.736Z,8.46
2022-11-02T17:35:34.582Z,8.39
2022-11-02T17:38:01.313Z,8.34
2022-11-02T17:40:27.720Z,8.29
2022-11-02T17:43:00.741Z,8.20
2022-11-02T17:45:31.624Z,8.15
2022-11-02T17:47:58.781Z,8.16
2022-11-02T17:50:26.601Z,8.13
2022-11-02T17:52:53.483Z,8.19
2022-11-02T17:55:21.216Z,8.23
2022-11-02T17:57:47.866Z,8.21
2022-11-02T18:00:15.143Z,8.19
2022-11-02T18:02:41.583Z,8.35
2022-11-02T18:05:34.356Z,8.43
2022-11-02T18:08:00.972Z,8.48
2022-11-02T18:10:36.696Z,8.40
2022-11-02T18:13:03.789Z,8.36
2022-11-02T18:15:32.037Z,8.24
2022-11-02T18:17:59.690Z,8.21
2022-11-02T18:20:27.799Z,8.17
2022-11-02T18:22:54.890Z,8.10
2022-11-02T18:27:52.739Z,7.90
2022-11-02T18:30:19.212Z,7.83
2022-11-02T18:32:46.219Z,7.74
2022-11-02T18:35:14.099Z,7.67
2022-11-02T18:37:40.711Z,7.61
2022-11-02T18:40:08.016Z,7.56
2022-11-02T18:42:40.863Z,7.43
2022-11-02T18:45:07.854Z,7.33
2022-11-02T18:47:34.588Z,7.26
2022-11-02T18:50:01.434Z,7.23
2022-11-02T18:52:32.182Z,7.33
2022-11-02T18:55:03.542Z,7.29
2022-11-02T18:57:30.368Z,7.28
2022-11-02T18:59:56.807Z,7.22
2022-11-02T19:02:23.327Z,7.17
2022-11-02T19:04:49.752Z,7.15
2022-11-02T19:07:34.672Z,7.13
2022-11-02T19:10:03.679Z,7.10
2022-11-02T19:12:30.692Z,7.05
2022-11-02T19:14:58.569Z,7.06
2022-11-02T19:17:26.250Z,7.03
2022-11-02T19:19:52.671Z,7.04
2022-11-02T19:22:20.538Z,7.07
2022-11-02T19:24:47.369Z,7.06
2022-11-02T19:27:14.967Z,7.04
2022-11-02T19:29:41.429Z,7.03
2022-11-02T19:32:08.028Z,7.02
2022-11-02T19:34:34.477Z,6.99
2022-11-02T19:37:00.868Z,6.97
2022-11-02T19:39:27.279Z,6.95
2022-11-02T19:41:54.370Z,6.92
2022-11-02T19:44:21.042Z,6.89
2022-11-02T19:46:47.485Z,6.85
2022-11-02T19:49:14.138Z,6.84
2022-11-02T19:51:40.597Z,6.79
2022-11-02T19:54:07.374Z,6.79
2022-11-02T19:56:34.794Z,6.77
2022-11-02T19:59:01.890Z,6.76
2022-11-02T20:01:29.492Z,6.73
2022-11-02T20:03:55.930Z,6.67
2022-11-02T20:06:22.924Z,6.63
2022-11-02T20:08:52.914Z,6.59
2022-11-02T20:11:19.593Z,6.54
2022-11-02T20:13:47.117Z,6.52
2022-11-02T20:16:14.675Z,6.46
2022-11-02T20:18:41.819Z,6.42
2022-11-02T20:21:10.096Z,6.37
2022-11-02T20:23:37.210Z,6.34
2022-11-02T20:26:05.524Z,6.29
2022-11-02T20:28:32.092Z,6.25
2022-11-02T20:30:58.455Z,6.22
2022-11-02T20:33:25.140Z,6.29
2022-11-02T20:35:51.581Z,6.24
2022-11-02T20:38:17.998Z,6.21
2022-11-02T20:40:44.411Z,6.18
2022-11-02T20:43:10.851Z,6.17
2022-11-02T20:45:37.242Z,6.11
2022-11-02T20:48:04.182Z,6.11
2022-11-02T20:50:30.852Z,6.09
2022-11-02T20:52:58.803Z,6.09
2022-11-02T20:55:25.312Z,6.06
2022-11-02T20:57:51.767Z,6.07
2022-11-02T21:00:18.899Z,6.03
2022-11-02T21:02:45.956Z,6.01
2022-11-02T21:05:12.885Z,6.03
2022-11-02T21:07:39.309Z,6.02
2022-11-02T21:10:06.105Z,6.02
2022-11-02T21:12:51.465Z,6.00
2022-11-02T21:15:18.068Z,6.00
2022-11-02T21:17:44.486Z,6.00
2022-11-02T21:20:32.709Z,5.95
2022-11-02T21:22:58.878Z,5.92
2022-11-02T21:25:25.355Z,5.88
2022-11-02T21:27:51.847Z,5.85
2022-11-02T21:30:18.574Z,5.78
2022-11-02T21:32:45.015Z,5.75
2022-11-02T21:35:11.439Z,5.74
2022-11-02T21:37:37.931Z,5.68
2022-11-02T21:40:04.489Z,5.65
2022-11-02T21:42:30.945Z,5.63
2022-11-02T21:44:57.363Z,5.59
2022-11-02T21:47:24.094Z,5.56
2022-11-02T21:49:50.506Z,5.52
2022-11-02T21:52:16.907Z,5.48
2022-11-02T21:54:43.340Z,5.40
2022-11-02T21:57:09.743Z,5.33
2022-11-02T21:59:36.160Z,5.22
2022-11-02T22:02:02.745Z,5.08
2022-11-02T22:04:31.120Z,4.98
2022-11-02T22:06:58.450Z,4.87
2022-11-02T22:09:25.504Z,4.79
2022-11-02T22:12:11.879Z,4.74
2022-11-02T22:14:38.419Z,4.70
2022-11-02T22:17:16.075Z,4.66
2022-11-02T22:19:49.099Z,4.66
2022-11-02T22:22:15.518Z,4.63
2022-11-02T22:24:44.768Z,4.56
2022-11-02T22:27:11.619Z,4.42
2022-11-02T22:29:38.051Z,4.34
2022-11-02T22:32:04.814Z,4.31
2022-11-02T22:34:31.275Z,4.27
2022-11-02T22:37:17.689Z,4.26
2022-11-02T22:39:44.103Z,4.24
2022-11-02T22:42:10.493Z,4.19
2022-11-02T22:44:36.924Z,4.16
2022-11-02T22:47:03.370Z,4.14
2022-11-02T22:49:29.839Z,4.13
2022-11-02T22:51:56.205Z,4.09
2022-11-02T22:54:22.881Z,4.07
2022-11-02T22:56:49.314Z,4.05
2022-11-02T22:59:16.212Z,4.05
2022-11-02T23:01:42.843Z,4.06
2022-11-02T23:04:10.664Z,4.06
2022-11-02T23:06:37.217Z,4.03
2022-11-02T23:09:03.715Z,3.98
2022-11-02T23:11:36.196Z,3.94
2022-11-02T23:14:04.579Z,3.90
2022-11-02T23:16:35.860Z,3.87
2022-11-02T23:19:22.082Z,3.86
2022-11-02T23:22:13.054Z,3.86
2022-11-02T23:24:58.855Z,3.84
2022-11-02T23:27:25.645Z,3.85
2022-11-02T23:30:10.572Z,3.85
2022-11-02T23:32:37.324Z,3.85
2022-11-02T23:35:22.875Z,3.82
2022-11-02T23:37:49.289Z,3.81
2022-11-02T23:40:17.137Z,3.77
2022-11-02T23:42:43.671Z,3.77
2022-11-02T23:45:10.791Z,3.74
2022-11-02T23:47:56.129Z,3.70
2022-11-02T23:50:41.672Z,3.64
2022-11-02T23:53:29.371Z,3.58
2022-11-02T23:56:14.982Z,3.55
2022-11-02T23:58:41.717Z,3.55
